Estancia Bella Vista, Argentina
Current Conditions -  °F | °C
As of 4:00 PM on Friday 28 Nov 2014 (Local Time) from SAZN Reporting Station
Clear Clear  
Wind Chill: 81°   Ceiling: Unl
Heat Index: 81°   Visibility: 6mi
Dew Point: 34°   Wind: 7mph
Humidity: 18%   Direction: 340°NNW
Pressure: 29.68"   Gusts: NA
Location:  42.13°S, 64.69°W
Report Text: SAZN 281900Z 34006KT CAVOK 27/01 Q1005
Loading
Personal Weather Stations






























Interactive Weather Map New forecast layout! Learn more

10-Day Weather Forecast

Advertisements
Track Severe Weather on mobile